Time;durP1;ratioP1;P1;durP2;ratioP2;P2;SDS_P1;SDS_P2;PMS_P1;PMS_P2;Temp;Humidity;BMP_temperature;BMP_pressure;BME280_temperature;BME280_humidity;BME280_pressure;Samples;Min_cycle;Max_cycle;Signal;HPM_P1;HPM_P2
2023/08/16 00:00:17;;;;;;;2.53;1.30;;;;;;;;;;4999985;28;20444;-71
2023/08/16 00:02:43;;;;;;;2.45;1.90;;;;;;;;;;5029757;28;20396;-68
2023/08/16 00:05:09;;;;;;;4.65;1.50;;;;;;;;;;5025581;28;20103;-69
2023/08/16 00:07:34;;;;;;;4.53;1.50;;;13.00;99.90;;;;;;5020461;28;20049;-69
2023/08/16 00:10:01;;;;;;;3.45;1.10;;;;;;;;;;5015217;28;20072;-69
2023/08/16 00:12:26;;;;;;;1.58;1.20;;;13.00;99.90;;;;;;5033887;28;20056;-68
2023/08/16 00:14:52;;;;;;;1.30;1.10;;;;;;;;;;5031144;28;20083;-70
2023/08/16 00:17:18;;;;;;;2.45;1.80;;;;;;;;;;5036519;28;20037;-69
2023/08/16 00:19:44;;;;;;;2.05;1.30;;;;;;;;;;5016049;28;20045;-69
2023/08/16 00:22:10;;;;;;;1.52;1.00;;;;;;;;;;5029136;28;20044;-70
2023/08/16 00:24:36;;;;;;;2.55;1.50;;;;;;;;;;5008604;28;20044;-68
2023/08/16 00:27:03;;;;;;;1.85;0.90;;;;;;;;;;5035141;28;20041;-69
2023/08/16 00:29:28;;;;;;;3.05;0.82;;;13.20;99.90;;;;;;5032637;28;20072;-69
2023/08/16 00:31:56;;;;;;;9.73;1.23;;;;;;;;;;5022278;28;20087;-69
2023/08/16 00:34:22;;;;;;;2.88;1.98;;;;;;;;;;5030811;28;20063;-70
2023/08/16 00:36:48;;;;;;;113.32;6.20;;;;;;;;;;5033577;28;20041;-69
2023/08/16 00:39:14;;;;;;;1.65;1.00;;;13.20;99.90;;;;;;5033937;28;20057;-68
2023/08/16 00:41:40;;;;;;;3.95;3.17;;;;;;;;;;5033770;28;20041;-68
2023/08/16 00:44:05;;;;;;;9.00;3.97;;;13.10;99.90;;;;;;5007774;28;20091;-68
2023/08/16 00:46:31;;;;;;;7.65;3.70;;;;;;;;;;5032535;28;20048;-68
2023/08/16 00:48:57;;;;;;;8.05;3.25;;;13.10;99.90;;;;;;5015470;28;20049;-68
2023/08/16 00:51:23;;;;;;;4.65;2.70;;;;;;;;;;5032782;28;20152;-69
2023/08/16 00:53:49;;;;;;;5.28;2.22;;;;;;;;;;5032064;28;20077;-70
2023/08/16 00:56:15;;;;;;;5.78;2.38;;;12.90;99.90;;;;;;5022804;28;20487;-68
2023/08/16 00:58:42;;;;;;;4.63;2.20;;;12.80;99.90;;;;;;5012012;28;20678;-68
2023/08/16 01:01:09;;;;;;;2.97;1.85;;;12.80;99.90;;;;;;5034339;28;20044;-69
2023/08/16 01:03:35;;;;;;;1.23;1.08;;;12.90;99.90;;;;;;5014719;28;20734;-69
2023/08/16 01:06:01;;;;;;;2.42;1.10;;;12.90;99.90;;;;;;5010006;28;20535;-68
2023/08/16 01:08:27;;;;;;;3.20;1.85;;;;;;;;;;5028127;28;20038;-68
2023/08/16 01:11:23;;;;;;;5.05;2.38;;;12.80;99.90;;;;;;5027928;28;20038;-68
2023/08/16 01:14:15;;;;;;;2.90;2.10;;;12.90;99.90;;;;;;5025389;28;20423;-69
2023/08/16 01:16:42;;;;;;;1.92;1.63;;;12.70;99.90;;;;;;5013598;28;20379;-69
2023/08/16 01:19:10;;;;;;;3.90;1.65;;;12.60;99.90;;;;;;5029239;28;20144;-69
2023/08/16 01:21:53;;;;;;;1.70;1.38;;;12.70;99.90;;;;;;5014912;28;20045;-69
2023/08/16 01:24:26;;;;;;;6.80;1.45;;;12.40;99.90;;;;;;5014104;28;20054;-70
2023/08/16 01:26:53;;;;;;;1.77;1.45;;;12.40;99.90;;;;;;5029109;28;20376;-68
2023/08/16 01:29:19;;;;;;;1.75;1.20;;;12.20;99.90;;;;;;5027646;28;20045;-69
2023/08/16 01:31:45;;;;;;;1.52;1.00;;;12.40;99.90;;;;;;5029570;28;20056;-69
2023/08/16 01:34:11;;;;;;;2.03;1.20;;;;;;;;;;5027054;28;20056;-68
2023/08/16 01:36:37;;;;;;;10.52;2.40;;;;;;;;;;5028290;28;20463;-68
2023/08/16 01:39:03;;;;;;;3.28;0.80;;;12.30;99.90;;;;;;5029099;28;20117;-68
2023/08/16 01:41:36;;;;;;;1.13;0.63;;;12.50;99.90;;;;;;5029001;28;20060;-69
2023/08/16 01:44:03;;;;;;;1.50;1.33;;;;;;;;;;5015545;28;20049;-68
2023/08/16 01:46:29;;;;;;;4.60;2.17;;;;;;;;;;5013901;28;20169;-68
2023/08/16 01:48:56;;;;;;;6.15;1.35;;;12.50;99.90;;;;;;5028226;28;20107;-69
2023/08/16 01:51:22;;;;;;;6.07;2.03;;;;;;;;;;5027569;28;20454;-68
2023/08/16 01:53:54;;;;;;;3.08;1.80;;;;;;;;;;5027403;28;20045;-68
2023/08/16 01:56:21;;;;;;;3.85;1.98;;;12.50;99.90;;;;;;5028229;28;20160;-68
2023/08/16 01:58:47;;;;;;;4.63;2.03;;;12.30;99.90;;;;;;5028428;28;20037;-69
2023/08/16 02:01:15;;;;;;;3.90;2.70;;;12.50;99.90;;;;;;5025215;28;20674;-68
2023/08/16 02:03:41;;;;;;;7.88;3.75;;;12.30;99.90;;;;;;5023032;28;20063;-68
2023/08/16 02:06:07;;;;;;;6.60;3.20;;;;;;;;;;5030802;28;20053;-68
2023/08/16 02:08:33;;;;;;;4.82;2.47;;;;;;;;;;5013882;28;20061;-69
2023/08/16 02:10:59;;;;;;;4.20;2.35;;;;;;;;;;5030843;28;20685;-70
2023/08/16 02:13:25;;;;;;;5.35;2.25;;;;;;;;;;5031448;28;20033;-70
2023/08/16 02:16:02;;;;;;;9.73;2.65;;;12.40;99.90;;;;;;5022231;28;20389;-68
2023/08/16 02:18:29;;;;;;;4.22;2.33;;;12.40;99.90;;;;;;5018548;28;20080;-68
2023/08/16 02:20:55;;;;;;;5.15;1.95;;;;;;;;;;5034417;28;20040;-68
2023/08/16 02:23:21;;;;;;;4.50;1.30;;;;;;;;;;5018778;28;20045;-68
2023/08/16 02:25:46;;;;;;;3.78;1.63;;;12.30;99.90;;;;;;5030217;28;20500;-68
2023/08/16 02:28:12;;;;;;;2.67;1.60;;;;;;;;;;5017102;28;20148;-68
2023/08/16 02:30:38;;;;;;;3.10;1.48;;;12.20;99.90;;;;;;5035907;28;20033;-68
2023/08/16 02:33:03;;;;;;;2.20;1.80;;;12.30;99.90;;;;;;5015777;28;20052;-68
2023/08/16 02:35:29;;;;;;;2.72;2.15;;;12.20;99.90;;;;;;5030767;28;20037;-68
2023/08/16 02:37:55;;;;;;;5.03;2.00;;;;;;;;;;5035329;28;20037;-69
2023/08/16 02:40:21;;;;;;;5.25;3.33;;;;;;;;;;5036610;28;20072;-69
2023/08/16 02:42:49;;;;;;;1.83;1.52;;;12.30;99.90;;;;;;5018315;28;20083;-68
2023/08/16 02:45:15;;;;;;;1.33;0.98;;;;;;;;;;5026871;28;20055;-70
2023/08/16 02:47:41;;;;;;;1.05;0.80;;;;;;;;;;5033703;28;20079;-68
2023/08/16 02:50:07;;;;;;;1.42;1.13;;;12.10;99.90;;;;;;5038997;28;20037;-68
2023/08/16 02:52:33;;;;;;;1.50;1.17;;;;;;;;;;5031287;28;20588;-71
2023/08/16 02:54:59;;;;;;;1.10;1.00;;;;;;;;;;5029183;28;20033;-68
2023/08/16 02:57:25;;;;;;;11.93;1.73;;;;;;;;;;5033856;28;20786;-68
2023/08/16 02:59:51;;;;;;;17.65;3.97;;;;;;;;;;5012250;28;20140;-68
2023/08/16 03:02:17;;;;;;;4.38;3.08;;;11.90;99.90;;;;;;4998493;28;20049;-69
2023/08/16 03:04:43;;;;;;;4.20;3.75;;;;;;;;;;5011326;28;20092;-68
2023/08/16 03:07:10;;;;;;;7.45;4.03;;;;;;;;;;5010923;28;20155;-70
2023/08/16 03:09:36;;;;;;;5.72;2.95;;;;;;;;;;5026935;28;20038;-69
2023/08/16 03:12:03;;;;;;;6.03;3.45;;;11.90;99.90;;;;;;5015389;28;20037;-69
2023/08/16 03:14:28;;;;;;;4.50;3.03;;;11.70;99.90;;;;;;5025336;28;20049;-68
2023/08/16 03:16:55;;;;;;;3.28;2.53;;;11.70;99.90;;;;;;5016926;28;20413;-68
2023/08/16 03:19:21;;;;;;;4.20;2.63;;;;;;;;;;5033977;28;20635;-68
2023/08/16 03:21:46;;;;;;;3.22;2.22;;;11.70;99.90;;;;;;5031127;28;20499;-69
2023/08/16 03:24:12;;;;;;;2.60;2.22;;;;;;;;;;5019781;28;20048;-70
2023/08/16 03:26:38;;;;;;;4.32;2.78;;;;;;;;;;5025169;28;20049;-69
2023/08/16 03:29:04;;;;;;;3.55;2.80;;;11.40;99.90;;;;;;5031664;28;20415;-68
2023/08/16 03:31:30;;;;;;;3.33;3.00;;;;;;;;;;5022740;28;20041;-68
2023/08/16 03:33:56;;;;;;;3.13;2.58;;;;;;;;;;5040164;28;20043;-68
2023/08/16 03:36:22;;;;;;;3.85;2.83;;;;;;;;;;5027284;28;20044;-68
2023/08/16 03:38:48;;;;;;;2.88;2.60;;;11.20;99.90;;;;;;5030085;28;20083;-68
2023/08/16 03:41:14;;;;;;;3.42;2.58;;;;;;;;;;5021752;28;20069;-69
2023/08/16 03:43:40;;;;;;;2.75;2.13;;;11.40;99.90;;;;;;5027882;28;20048;-68
2023/08/16 03:46:07;;;;;;;3.60;2.60;;;;;;;;;;5015157;28;20049;-69
2023/08/16 03:48:33;;;;;;;2.92;2.67;;;;;;;;;;5026281;28;20842;-69
2023/08/16 03:50:59;;;;;;;7.10;3.20;;;;;;;;;;5015545;28;20053;-68
2023/08/16 03:53:24;;;;;;;7.45;2.58;;;11.60;99.90;;;;;;5011693;28;20048;-68
2023/08/16 03:55:56;;;;;;;17.83;2.42;;;11.50;99.90;;;;;;5019412;28;20091;-68
2023/08/16 03:58:22;;;;;;;6.30;2.88;;;;;;;;;;5009877;28;20045;-68
2023/08/16 04:00:48;;;;;;;6.00;3.45;;;11.50;99.90;;;;;;5036387;28;20117;-68
2023/08/16 04:03:13;;;;;;;6.68;3.13;;;11.40;99.90;;;;;;4983817;28;20053;-68
2023/08/16 04:05:40;;;;;;;6.05;3.92;;;;;;;;;;5014205;28;20062;-68
2023/08/16 04:08:06;;;;;;;12.73;3.65;;;;;;;;;;5006778;28;20134;-68
2023/08/16 04:10:31;;;;;;;150.70;8.85;;;;;;;;;;5012423;28;20116;-70
2023/08/16 04:12:57;;;;;;;136.07;8.40;;;;;;;;;;4992397;28;20056;-68
2023/08/16 04:15:23;;;;;;;31.13;4.75;;;;;;;;;;4981213;28;20054;-70
2023/08/16 04:17:49;;;;;;;10.52;3.20;;;;;;;;;;4993749;28;20069;-68
2023/08/16 04:20:15;;;;;;;9.68;3.70;;;11.40;99.90;;;;;;5010547;28;20101;-68
2023/08/16 04:22:40;;;;;;;5.47;3.83;;;11.30;99.90;;;;;;5008633;28;20080;-68
2023/08/16 04:25:08;;;;;;;12.25;4.07;;;;;;;;;;4993304;28;20108;-68
2023/08/16 04:27:34;;;;;;;7.30;3.65;;;;;;;;;;4999686;28;20054;-70
2023/08/16 04:30:00;;;;;;;19.55;4.05;;;;;;;;;;4995100;28;20543;-68
2023/08/16 04:32:25;;;;;;;5.10;3.67;;;11.40;99.90;;;;;;4993415;28;20036;-68
2023/08/16 04:34:51;;;;;;;7.25;4.03;;;;;;;;;;5003208;28;20025;-68
2023/08/16 04:37:17;;;;;;;8.32;4.68;;;;;;;;;;5015244;28;20560;-69
2023/08/16 04:39:43;;;;;;;12.70;5.30;;;11.50;99.90;;;;;;4996612;28;20092;-68
2023/08/16 04:42:09;;;;;;;5.10;4.35;;;;;;;;;;5006185;28;20038;-69
2023/08/16 04:44:35;;;;;;;8.48;5.25;;;;;;;;;;5006933;28;20565;-69
2023/08/16 04:47:01;;;;;;;61.92;8.70;;;;;;;;;;5013262;28;20045;-68
2023/08/16 04:49:28;;;;;;;91.47;9.32;;;;;;;;;;4995678;28;20046;-68
2023/08/16 04:51:54;;;;;;;43.85;6.35;;;11.50;99.90;;;;;;4997285;28;20046;-68
2023/08/16 04:54:20;;;;;;;29.50;5.20;;;;;;;;;;4996633;28;20046;-69
2023/08/16 04:56:45;;;;;;;25.80;5.50;;;;;;;;;;5014026;28;20041;-68
2023/08/16 04:59:11;;;;;;;40.72;6.35;;;;;;;;;;5013962;28;20491;-69
2023/08/16 05:01:37;;;;;;;22.08;4.75;;;;;;;;;;5007612;28;20896;-68
2023/08/16 05:04:06;;;;;;;10.98;5.18;;;;;;;;;;5005073;28;20046;-68
2023/08/16 05:06:32;;;;;;;6.68;4.45;;;;;;;;;;5025022;28;20064;-68
2023/08/16 05:08:58;;;;;;;7.15;3.97;;;;;;;;;;5037077;28;20523;-68
2023/08/16 05:11:24;;;;;;;4.90;4.20;;;11.70;99.90;;;;;;5027794;28;20065;-68
2023/08/16 05:13:50;;;;;;;6.47;5.22;;;;;;;;;;5017169;28;20046;-69
2023/08/16 05:16:16;;;;;;;7.05;6.15;;;;;;;;;;5029750;28;20562;-68
2023/08/16 05:18:41;;;;;;;7.15;5.53;;;11.90;99.90;;;;;;4999523;28;20188;-68
2023/08/16 05:21:07;;;;;;;6.57;4.97;;;;;;;;;;5021882;28;20050;-69
2023/08/16 05:23:34;;;;;;;5.90;4.88;;;12.00;99.90;;;;;;5026799;28;20098;-70
2023/08/16 05:26:00;;;;;;;9.23;6.82;;;;;;;;;;5010445;28;20042;-69
2023/08/16 05:28:26;;;;;;;10.93;7.25;;;;;;;;;;5014594;28;20076;-69
2023/08/16 05:30:52;;;;;;;10.60;7.07;;;12.30;99.90;;;;;;5006936;28;20586;-68
2023/08/16 05:33:18;;;;;;;15.98;7.80;;;12.10;99.90;;;;;;5026771;28;20049;-68
2023/08/16 05:35:44;;;;;;;9.20;6.95;;;;;;;;;;5027316;28;20087;-68
2023/08/16 05:38:10;;;;;;;18.95;6.65;;;12.30;99.90;;;;;;5015323;28;20034;-68
2023/08/16 05:40:36;;;;;;;9.25;6.75;;;;;;;;;;5014268;28;20052;-68
2023/08/16 05:43:01;;;;;;;14.65;7.28;;;12.50;99.90;;;;;;5024762;28;20033;-69
2023/08/16 05:45:28;;;;;;;16.60;7.75;;;;;;;;;;5019712;28;20041;-69
2023/08/16 05:47:54;;;;;;;10.82;7.78;;;12.60;99.90;;;;;;5009013;28;20052;-69
2023/08/16 05:50:20;;;;;;;22.67;8.90;;;12.70;99.90;;;;;;5020114;28;20041;-68
2023/08/16 05:52:46;;;;;;;10.57;7.35;;;;;;;;;;5030228;28;20088;-68
2023/08/16 05:55:12;;;;;;;9.32;7.15;;;;;;;;;;5020001;28;20041;-68
2023/08/16 05:57:38;;;;;;;8.95;6.60;;;13.00;99.90;;;;;;5017898;28;20499;-68
2023/08/16 06:00:04;;;;;;;12.02;7.55;;;;;;;;;;5037600;28;20044;-69
2023/08/16 06:02:29;;;;;;;9.45;7.07;;;13.30;99.90;;;;;;5027737;28;20083;-68
2023/08/16 06:04:55;;;;;;;9.25;5.47;;;13.40;99.90;;;;;;5019821;28;20057;-68
2023/08/16 06:07:21;;;;;;;6.88;4.88;;;;;;;;;;5028160;28;20053;-68
2023/08/16 06:09:47;;;;;;;7.95;5.45;;;13.60;99.90;;;;;;5036110;28;20162;-68
2023/08/16 06:12:13;;;;;;;6.13;4.28;;;13.80;99.90;;;;;;5010714;28;20483;-68
2023/08/16 06:14:38;;;;;;;6.25;4.38;;;14.10;99.90;;;;;;5030063;28;20033;-68
2023/08/16 06:17:04;;;;;;;8.68;6.18;;;;;;;;;;5012776;28;20445;-69
2023/08/16 06:19:30;;;;;;;8.88;7.00;;;14.70;99.90;;;;;;5015746;28;20037;-68
2023/08/16 06:21:58;;;;;;;11.32;6.68;;;;;;;;;;5015238;28;20140;-68
2023/08/16 06:24:25;;;;;;;9.85;6.57;;;;;;;;;;5015787;28;20078;-70
2023/08/16 06:26:51;;;;;;;9.48;6.32;;;15.80;99.90;;;;;;5009887;28;20111;-68
2023/08/16 06:29:16;;;;;;;12.40;6.40;;;16.00;99.90;;;;;;5017133;28;20500;-68
2023/08/16 06:31:42;;;;;;;8.35;7.25;;;;;;;;;;5026736;28;20037;-68
2023/08/16 06:34:08;;;;;;;11.82;7.13;;;;;;;;;;5024399;28;20080;-70
2023/08/16 06:36:34;;;;;;;9.40;6.10;;;16.90;99.90;;;;;;5026472;28;20047;-69
2023/08/16 06:39:00;;;;;;;6.97;5.43;;;;;;;;;;4997263;28;20639;-69
2023/08/16 06:41:25;;;;;;;8.48;5.80;;;18.20;99.90;;;;;;5008043;28;20052;-69
2023/08/16 06:43:51;;;;;;;13.50;5.40;;;18.20;99.90;;;;;;5026002;28;20061;-69
2023/08/16 06:46:16;;;;;;;8.52;5.72;;;18.90;99.90;;;;;;5008452;28;20132;-69
2023/08/16 06:48:42;;;;;;;9.00;4.25;;;20.00;99.90;;;;;;5029354;28;20053;-69
2023/08/16 06:51:07;;;;;;;7.07;3.92;;;21.00;99.90;;;;;;5010651;28;20530;-69
2023/08/16 06:53:33;;;;;;;7.55;3.55;;;22.30;99.90;;;;;;5013195;28;20518;-69
2023/08/16 06:55:59;;;;;;;8.82;3.40;;;22.90;99.90;;;;;;5009915;28;20045;-69
2023/08/16 06:58:25;;;;;;;7.47;3.30;;;23.40;99.90;;;;;;5021927;28;20475;-71
2023/08/16 07:00:50;;;;;;;7.78;3.20;;;23.30;99.90;;;;;;5020645;28;20038;-69
2023/08/16 07:03:17;;;;;;;7.55;2.53;;;23.50;99.90;;;;;;5017992;28;20048;-70
2023/08/16 07:05:43;;;;;;;4.93;2.25;;;23.90;99.90;;;;;;5010446;28;20487;-70
2023/08/16 07:08:09;;;;;;;10.50;3.42;;;24.40;99.90;;;;;;4998777;28;20048;-69
2023/08/16 07:10:34;;;;;;;4.88;2.63;;;23.50;99.90;;;;;;5005455;28;20784;-69
2023/08/16 07:13:02;;;;;;;7.05;3.63;;;23.10;99.90;;;;;;5008676;28;20751;-69
2023/08/16 07:15:28;;;;;;;6.35;3.72;;;22.60;99.90;;;;;;4987949;28;20465;-70
2023/08/16 07:17:53;;;;;;;11.50;3.75;;;22.10;99.90;;;;;;5008642;28;20042;-69
2023/08/16 07:20:19;;;;;;;6.38;3.10;;;21.50;99.90;;;;;;4980447;28;20045;-70
2023/08/16 07:22:45;;;;;;;8.15;3.53;;;21.10;99.90;;;;;;5020509;28;20041;-69
2023/08/16 07:25:11;;;;;;;9.15;2.28;;;20.70;99.90;;;;;;5021876;28;20077;-69
2023/08/16 07:27:36;;;;;;;6.68;2.92;;;20.30;99.90;;;;;;5024094;28;20411;-69
2023/08/16 07:30:04;;;;;;;8.02;2.83;;;20.30;99.90;;;;;;5010524;28;20068;-69
2023/08/16 07:32:30;;;;;;;7.90;3.42;;;19.80;99.90;;;;;;5022635;28;20041;-69
2023/08/16 07:34:56;;;;;;;8.88;3.20;;;19.70;99.90;;;;;;5015265;28;20645;-69
2023/08/16 07:37:21;;;;;;;5.57;2.90;;;19.60;99.90;;;;;;4992392;28;20068;-69
2023/08/16 07:39:47;;;;;;;5.43;2.53;;;19.50;99.90;;;;;;5000081;28;20779;-69
2023/08/16 07:42:13;;;;;;;6.70;3.22;;;19.60;99.90;;;;;;5011530;28;20045;-69
2023/08/16 07:44:38;;;;;;;9.25;2.88;;;19.50;99.90;;;;;;5002387;28;20107;-70
2023/08/16 07:47:05;;;;;;;7.72;3.45;;;19.50;99.90;;;;;;5013570;28;20570;-68
2023/08/16 07:49:31;;;;;;;9.50;2.78;;;19.60;99.90;;;;;;5005324;28;20054;-68
2023/08/16 07:51:57;;;;;;;5.65;2.25;;;19.60;99.90;;;;;;5007910;28;20057;-68
2023/08/16 07:54:23;;;;;;;4.93;2.78;;;19.60;99.90;;;;;;5011136;28;20029;-68
2023/08/16 07:56:50;;;;;;;3.63;2.25;;;19.50;99.90;;;;;;5019925;28;20107;-69
2023/08/16 07:59:16;;;;;;;6.20;2.15;;;19.40;99.90;;;;;;5008702;28;20041;-69
2023/08/16 08:01:43;;;;;;;6.20;1.98;;;19.40;99.90;;;;;;5020098;28;20045;-68
2023/08/16 08:04:09;;;;;;;7.30;2.22;;;19.40;99.90;;;;;;5006598;28;20038;-68
2023/08/16 08:06:35;;;;;;;5.78;1.88;;;19.40;99.90;;;;;;4990437;28;20119;-68
2023/08/16 08:09:01;;;;;;;6.07;2.30;;;;;;;;;;4999568;28;21540;-69
2023/08/16 08:11:27;;;;;;;9.32;2.28;;;;;;;;;;5016756;28;20033;-69
2023/08/16 08:13:53;;;;;;;4.82;2.80;;;19.40;99.90;;;;;;5007150;28;20492;-68
2023/08/16 08:16:18;;;;;;;7.18;1.75;;;19.40;99.90;;;;;;5008984;28;20436;-69
2023/08/16 08:18:44;;;;;;;6.75;1.80;;;19.50;99.90;;;;;;5015245;28;20443;-70
2023/08/16 08:21:10;;;;;;;2.22;1.58;;;19.50;99.90;;;;;;4991371;28;20042;-70
2023/08/16 08:23:36;;;;;;;2.53;1.65;;;19.40;99.90;;;;;;4966353;28;20046;-68
2023/08/16 08:26:01;;;;;;;7.13;1.92;;;19.60;99.90;;;;;;5003935;28;20041;-68
2023/08/16 08:28:27;;;;;;;4.72;1.58;;;;;;;;;;5018787;28;20569;-70
2023/08/16 08:30:53;;;;;;;6.22;1.67;;;19.70;99.90;;;;;;4995032;28;20061;-69
2023/08/16 08:33:19;;;;;;;8.95;2.35;;;19.70;99.90;;;;;;5013853;28;20120;-69
2023/08/16 08:35:46;;;;;;;5.32;1.73;;;19.70;99.90;;;;;;4986513;28;20057;-69
2023/08/16 08:38:11;;;;;;;4.28;1.38;;;19.70;99.90;;;;;;5000972;28;20064;-69
2023/08/16 08:40:37;;;;;;;7.85;1.92;;;19.70;99.90;;;;;;4999318;28;20467;-68
2023/08/16 08:43:04;;;;;;;3.55;1.40;;;19.80;99.90;;;;;;4994720;28;20042;-70
2023/08/16 08:45:34;;;;;;;2.47;0.85;;;19.70;99.90;;;;;;4996134;28;20044;-69
2023/08/16 08:48:00;;;;;;;5.78;1.85;;;19.90;99.90;;;;;;5009745;28;20757;-69
2023/08/16 08:50:29;;;;;;;17.25;6.43;;;19.90;99.90;;;;;;5007202;28;20033;-69
2023/08/16 08:52:56;;;;;;;13.18;4.43;;;19.90;99.90;;;;;;5004690;28;20073;-69
2023/08/16 08:55:25;;;;;;;5.22;1.27;;;20.00;99.90;;;;;;5025133;28;20041;-69
2023/08/16 08:57:56;;;;;;;8.48;3.08;;;20.00;99.90;;;;;;5021199;28;20045;-69
2023/08/16 09:00:24;;;;;;;5.45;1.88;;;20.10;99.90;;;;;;5022733;28;20080;-69
2023/08/16 09:02:50;;;;;;;7.05;2.10;;;20.20;99.90;;;;;;5007999;28;20053;-69
2023/08/16 09:05:20;;;;;;;4.70;2.03;;;20.00;99.90;;;;;;4994075;28;20468;-69
2023/08/16 09:07:46;;;;;;;4.15;1.17;;;20.30;99.90;;;;;;5009444;28;20144;-69
2023/08/16 09:10:13;;;;;;;4.15;1.58;;;20.20;99.90;;;;;;5005346;28;20760;-69
2023/08/16 09:12:39;;;;;;;3.97;1.52;;;20.20;99.90;;;;;;4972143;28;20052;-69
2023/08/16 09:15:07;;;;;;;5.13;1.42;;;20.20;99.90;;;;;;5009553;28;20062;-69
2023/08/16 09:17:33;;;;;;;5.82;1.50;;;20.40;99.90;;;;;;5006148;28;20038;-69
2023/08/16 09:19:59;;;;;;;3.95;1.00;;;20.60;99.90;;;;;;5007064;28;20104;-69
2023/08/16 09:22:27;;;;;;;3.90;0.98;;;20.50;99.90;;;;;;5002612;28;20092;-69
2023/08/16 09:24:56;;;;;;;2.30;1.17;;;20.50;99.90;;;;;;5014414;28;20470;-69
2023/08/16 09:27:29;;;;;;;3.78;0.82;;;20.80;99.90;;;;;;5015730;28;20044;-69
2023/08/16 09:29:55;;;;;;;4.95;1.10;;;20.70;99.90;;;;;;5005219;28;20115;-69
2023/08/16 09:32:22;;;;;;;2.67;1.00;;;21.10;99.90;;;;;;5016126;28;20177;-69
2023/08/16 09:34:48;;;;;;;3.13;0.90;;;20.80;99.90;;;;;;4993071;28;20916;-69
2023/08/16 09:37:15;;;;;;;3.92;1.00;;;20.80;99.90;;;;;;5016109;28;20404;-69
2023/08/16 09:39:40;;;;;;;4.05;1.40;;;20.90;99.90;;;;;;5006023;28;20084;-69
2023/08/16 09:42:13;;;;;;;2.75;1.00;;;21.20;99.90;;;;;;5011808;28;20085;-69
2023/08/16 09:44:40;;;;;;;4.40;0.93;;;21.00;99.90;;;;;;5006311;28;20048;-69
2023/08/16 09:47:13;;;;;;;3.05;0.75;;;21.10;99.90;;;;;;5009143;28;20045;-69
2023/08/16 09:49:39;;;;;;;4.10;0.70;;;21.50;99.90;;;;;;5007376;28;20100;-69
2023/08/16 09:52:11;;;;;;;2.47;0.65;;;21.80;99.90;;;;;;5008750;28;20567;-69
2023/08/16 09:54:37;;;;;;;5.60;0.90;;;21.50;99.90;;;;;;4998791;28;20048;-69
2023/08/16 09:57:04;;;;;;;3.67;0.90;;;21.60;99.90;;;;;;5010839;28;20041;-69
2023/08/16 09:59:31;;;;;;;3.90;0.80;;;21.80;99.90;;;;;;4996121;28;20046;-69
2023/08/16 10:01:58;;;;;;;2.58;1.05;;;22.10;99.90;;;;;;5020760;28;20037;-69
2023/08/16 10:04:24;;;;;;;1.90;0.60;;;22.70;99.90;;;;;;5023499;28;20052;-69
2023/08/16 10:06:50;;;;;;;3.25;0.80;;;21.80;99.90;;;;;;5034244;28;20055;-69
2023/08/16 10:09:16;;;;;;;2.75;0.50;;;22.00;99.90;;;;;;5008396;28;20049;-69
2023/08/16 10:11:43;;;;;;;2.45;0.70;;;22.20;99.90;;;;;;5028423;28;20041;-69
2023/08/16 10:14:09;;;;;;;2.33;0.60;;;21.90;99.90;;;;;;5028087;28;20076;-69
2023/08/16 10:16:36;;;;;;;1.85;0.60;;;21.90;99.90;;;;;;5031407;28;20119;-69
2023/08/16 10:19:02;;;;;;;2.47;0.40;;;22.00;99.90;;;;;;5025343;28;20071;-69
2023/08/16 10:21:30;;;;;;;3.20;0.60;;;21.90;99.90;;;;;;5026166;28;20042;-70
2023/08/16 10:23:56;;;;;;;2.47;0.75;;;22.20;99.90;;;;;;5010298;28;20045;-69
2023/08/16 10:26:24;;;;;;;2.58;0.50;;;22.00;99.90;;;;;;5026056;28;20411;-70
2023/08/16 10:28:54;;;;;;;1.30;0.63;;;22.10;99.90;;;;;;5032183;28;20091;-70
2023/08/16 10:31:24;;;;;;;3.25;0.90;;;22.30;99.90;;;;;;5017267;28;20049;-69
2023/08/16 10:33:52;;;;;;;3.15;0.80;;;22.30;99.90;;;;;;5014204;28;20131;-69
2023/08/16 10:36:18;;;;;;;3.25;0.60;;;22.10;99.90;;;;;;5031414;28;20056;-70
2023/08/16 10:38:52;;;;;;;1.67;0.55;;;21.90;99.90;;;;;;5025806;28;20155;-70
2023/08/16 10:41:17;;;;;;;3.13;0.70;;;21.70;99.90;;;;;;5028766;28;20053;-69
2023/08/16 10:43:48;;;;;;;3.40;0.57;;;21.50;99.90;;;;;;5028285;28;20063;-69
2023/08/16 10:46:31;;;;;;;1.92;0.80;;;22.00;99.90;;;;;;4984573;28;20128;-70
2023/08/16 10:48:58;;;;;;;3.50;0.80;;;21.60;99.90;;;;;;5003629;28;20041;-70
2023/08/16 10:51:24;;;;;;;3.72;0.77;;;21.50;99.90;;;;;;5024862;28;20576;-69
2023/08/16 10:53:50;;;;;;;1.92;0.70;;;21.60;99.90;;;;;;5006157;28;20488;-69
2023/08/16 10:56:18;;;;;;;4.70;0.77;;;21.70;99.90;;;;;;5024886;28;20041;-69
2023/08/16 10:58:49;;;;;;;2.75;0.63;;;21.70;99.90;;;;;;5013701;28;20045;-69
2023/08/16 11:01:16;;;;;;;2.20;0.60;;;21.90;99.90;;;;;;5022469;28;20037;-70
2023/08/16 11:03:43;;;;;;;3.85;1.17;;;22.00;99.90;;;;;;5013626;28;20433;-69
2023/08/16 11:06:14;;;;;;;3.83;0.80;;;22.00;99.90;;;;;;5010998;28;20415;-70
2023/08/16 11:08:44;;;;;;;3.22;1.00;;;21.90;99.90;;;;;;5019078;28;20057;-69
2023/08/16 11:11:11;;;;;;;2.03;0.95;;;21.90;99.90;;;;;;5005148;28;20045;-70
2023/08/16 11:13:40;;;;;;;2.63;0.60;;;21.90;99.90;;;;;;5015060;28;20045;-69
2023/08/16 11:16:09;;;;;;;5.07;0.70;;;22.30;99.90;;;;;;5026058;28;20582;-69
2023/08/16 11:18:35;;;;;;;1.83;0.63;;;22.20;99.90;;;;;;5011503;28;20045;-69
2023/08/16 11:21:02;;;;;;;1.33;0.75;;;22.20;99.90;;;;;;5010576;28;20617;-70
2023/08/16 11:23:32;;;;;;;1.45;0.50;;;22.40;99.90;;;;;;5005719;28;20058;-69
2023/08/16 11:26:06;;;;;;;2.58;0.80;;;22.30;99.90;;;;;;5003684;28;20107;-69
2023/08/16 11:28:33;;;;;;;6.40;0.82;;;22.50;99.90;;;;;;5028237;28;20063;-69
2023/08/16 11:31:00;;;;;;;3.97;0.68;;;22.70;99.90;;;;;;5025156;28;20052;-69
2023/08/16 11:33:38;;;;;;;2.42;0.50;;;22.80;99.90;;;;;;5012814;28;20119;-70
2023/08/16 11:36:07;;;;;;;2.90;0.47;;;22.70;99.90;;;;;;5024564;28;20147;-70
2023/08/16 11:38:34;;;;;;;2.67;0.57;;;22.60;99.90;;;;;;5024632;28;20059;-69
2023/08/16 11:41:00;;;;;;;2.70;0.55;;;22.60;99.90;;;;;;5021706;28;20042;-70
2023/08/16 11:43:31;;;;;;;7.53;0.95;;;22.40;99.90;;;;;;5008196;28;20072;-70
2023/08/16 11:45:57;;;;;;;3.15;0.70;;;23.80;99.90;;;;;;5019423;28;20156;-69
2023/08/16 11:48:25;;;;;;;3.08;0.57;;;22.50;99.90;;;;;;5024747;28;20041;-70
2023/08/16 11:50:51;;;;;;;3.53;0.55;;;22.70;99.90;;;;;;4983841;28;20184;-70
2023/08/16 11:53:18;;;;;;;4.45;0.63;;;22.70;99.90;;;;;;5004381;28;20121;-70
2023/08/16 11:55:57;;;;;;;3.35;0.65;;;22.60;99.90;;;;;;5022600;28;20041;-69
2023/08/16 11:58:22;;;;;;;5.68;0.80;;;22.70;99.90;;;;;;5027746;28;20562;-69
2023/08/16 12:00:48;;;;;;;9.48;1.20;;;22.50;99.90;;;;;;5023176;28;20114;-69
2023/08/16 12:03:17;;;;;;;4.53;0.70;;;22.30;99.90;;;;;;5028260;28;20419;-70
2023/08/16 12:05:46;;;;;;;2.55;0.40;;;22.60;99.90;;;;;;5020338;28;20060;-70
2023/08/16 12:08:12;;;;;;;2.90;0.60;;;22.50;99.90;;;;;;5029780;28;20045;-69
2023/08/16 12:10:39;;;;;;;4.93;0.35;;;22.60;99.90;;;;;;5012496;28;20058;-69
2023/08/16 12:13:13;;;;;;;1.25;0.40;;;22.50;99.90;;;;;;5021514;28;20077;-70
2023/08/16 12:15:41;;;;;;;3.53;0.60;;;22.70;99.90;;;;;;5014194;28;20499;-70
2023/08/16 12:18:06;;;;;;;2.70;0.60;;;22.30;99.90;;;;;;5026853;28;20308;-70
2023/08/16 12:20:32;;;;;;;3.63;0.60;;;22.30;99.90;;;;;;5025184;28;20080;-70
2023/08/16 12:22:58;;;;;;;2.20;0.40;;;22.10;99.90;;;;;;5020857;28;20615;-69
2023/08/16 12:25:24;;;;;;;2.67;0.47;;;22.20;99.90;;;;;;5032423;28;20069;-69
2023/08/16 12:27:50;;;;;;;3.67;0.90;;;22.20;99.90;;;;;;5025678;28;20030;-70
2023/08/16 12:30:16;;;;;;;2.85;0.43;;;22.40;99.90;;;;;;5021865;28;20041;-70
2023/08/16 12:32:41;;;;;;;3.03;0.45;;;22.40;99.90;;;;;;5009543;28;20065;-70
2023/08/16 12:35:07;;;;;;;4.57;0.88;;;22.30;99.90;;;;;;5026076;28;20072;-70
2023/08/16 12:37:33;;;;;;;6.75;1.33;;;22.40;99.90;;;;;;5008791;28;20041;-69
2023/08/16 12:39:58;;;;;;;3.92;0.80;;;22.30;99.90;;;;;;5003687;28;20504;-70
2023/08/16 12:42:24;;;;;;;2.55;0.55;;;22.50;99.90;;;;;;5004490;28;20042;-70
2023/08/16 12:44:49;;;;;;;5.93;0.50;;;22.50;99.90;;;;;;5000788;28;20038;-70
2023/08/16 12:47:15;;;;;;;3.08;0.52;;;22.50;99.90;;;;;;5015840;28;20038;-70
2023/08/16 12:49:41;;;;;;;2.53;0.50;;;22.40;99.90;;;;;;5019325;28;20088;-70
2023/08/16 12:52:06;;;;;;;3.80;0.52;;;22.60;99.90;;;;;;5019209;28;20152;-70
2023/08/16 12:54:32;;;;;;;3.40;0.73;;;22.50;99.90;;;;;;5019617;28;20393;-70
2023/08/16 12:56:57;;;;;;;8.13;1.00;;;22.60;99.90;;;;;;5006552;28;20041;-69
2023/08/16 12:59:23;;;;;;;1.77;0.40;;;22.60;99.90;;;;;;5008908;28;20050;-70
2023/08/16 13:01:49;;;;;;;4.07;0.50;;;22.50;99.90;;;;;;5015111;28;20128;-70
2023/08/16 13:04:16;;;;;;;2.38;0.75;;;22.30;99.90;;;;;;4990104;28;20081;-69
2023/08/16 13:06:42;;;;;;;7.28;1.00;;;22.50;99.90;;;;;;5022929;28;20067;-69
2023/08/16 13:09:08;;;;;;;2.58;0.63;;;22.30;99.90;;;;;;5013446;28;20054;-70
2023/08/16 13:11:34;;;;;;;1.23;0.40;;;22.20;99.90;;;;;;5005778;28;20038;-69
2023/08/16 13:14:00;;;;;;;3.38;0.60;;;22.40;99.90;;;;;;5022769;28;20499;-69